sensor_id;sensor_type;location;lat;lon;timestamp;P1;durP1;ratioP1;P2;durP2;ratioP2
74510;SDS011;62991;50.040;18.400;2023-02-15T00:01:09;22.45;;;8.40;;
74510;SDS011;62991;50.040;18.400;2023-02-15T00:04:14;21.75;;;8.32;;
74510;SDS011;62991;50.040;18.400;2023-02-15T00:07:18;27.83;;;8.93;;
74510;SDS011;62991;50.040;18.400;2023-02-15T00:10:19;23.20;;;7.95;;
74510;SDS011;62991;50.040;18.400;2023-02-15T00:13:20;20.90;;;8.07;;
74510;SDS011;62991;50.040;18.400;2023-02-15T00:16:20;19.77;;;7.03;;
74510;SDS011;62991;50.040;18.400;2023-02-15T00:19:21;18.52;;;7.70;;
74510;SDS011;62991;50.040;18.400;2023-02-15T00:22:22;21.75;;;8.10;;
74510;SDS011;62991;50.040;18.400;2023-02-15T00:25:22;17.60;;;7.00;;
74510;SDS011;62991;50.040;18.400;2023-02-15T00:28:23;17.52;;;8.18;;
74510;SDS011;62991;50.040;18.400;2023-02-15T00:31:24;23.40;;;9.18;;
74510;SDS011;62991;50.040;18.400;2023-02-15T00:34:26;25.67;;;8.40;;
74510;SDS011;62991;50.040;18.400;2023-02-15T00:37:28;18.48;;;7.78;;
74510;SDS011;62991;50.040;18.400;2023-02-15T00:40:28;22.17;;;9.32;;
74510;SDS011;62991;50.040;18.400;2023-02-15T00:43:29;24.27;;;9.02;;
74510;SDS011;62991;50.040;18.400;2023-02-15T00:46:31;19.15;;;7.53;;
74510;SDS011;62991;50.040;18.400;2023-02-15T00:49:33;21.85;;;8.90;;
74510;SDS011;62991;50.040;18.400;2023-02-15T00:52:33;21.52;;;9.13;;
74510;SDS011;62991;50.040;18.400;2023-02-15T00:55:34;22.98;;;8.98;;
74510;SDS011;62991;50.040;18.400;2023-02-15T00:58:35;19.13;;;9.10;;
74510;SDS011;62991;50.040;18.400;2023-02-15T01:01:36;23.98;;;8.20;;
74510;SDS011;62991;50.040;18.400;2023-02-15T01:04:37;20.98;;;8.55;;
74510;SDS011;62991;50.040;18.400;2023-02-15T01:07:38;19.77;;;8.32;;
74510;SDS011;62991;50.040;18.400;2023-02-15T01:10:38;18.17;;;7.80;;
74510;SDS011;62991;50.040;18.400;2023-02-15T01:13:40;18.88;;;8.15;;
74510;SDS011;62991;50.040;18.400;2023-02-15T01:16:41;22.77;;;8.98;;
74510;SDS011;62991;50.040;18.400;2023-02-15T01:19:42;18.67;;;8.05;;
74510;SDS011;62991;50.040;18.400;2023-02-15T01:22:43;23.33;;;9.88;;
74510;SDS011;62991;50.040;18.400;2023-02-15T01:25:43;22.92;;;10.23;;
74510;SDS011;62991;50.040;18.400;2023-02-15T01:28:44;30.70;;;10.43;;
74510;SDS011;62991;50.040;18.400;2023-02-15T01:31:45;22.30;;;9.43;;
74510;SDS011;62991;50.040;18.400;2023-02-15T01:34:46;26.10;;;9.98;;
74510;SDS011;62991;50.040;18.400;2023-02-15T01:37:46;25.13;;;10.35;;
74510;SDS011;62991;50.040;18.400;2023-02-15T01:40:50;26.85;;;9.90;;
74510;SDS011;62991;50.040;18.400;2023-02-15T01:43:52;22.85;;;11.27;;
74510;SDS011;62991;50.040;18.400;2023-02-15T01:46:58;27.52;;;9.93;;
74510;SDS011;62991;50.040;18.400;2023-02-15T01:50:10;31.33;;;9.48;;
74510;SDS011;62991;50.040;18.400;2023-02-15T01:56:51;24.23;;;8.85;;
74510;SDS011;62991;50.040;18.400;2023-02-15T01:59:55;25.90;;;10.43;;
74510;SDS011;62991;50.040;18.400;2023-02-15T02:02:59;25.02;;;10.80;;
74510;SDS011;62991;50.040;18.400;2023-02-15T02:06:01;24.35;;;9.25;;
74510;SDS011;62991;50.040;18.400;2023-02-15T02:09:02;28.65;;;10.40;;
74510;SDS011;62991;50.040;18.400;2023-02-15T02:12:03;28.63;;;10.00;;
74510;SDS011;62991;50.040;18.400;2023-02-15T02:15:04;26.33;;;10.65;;
74510;SDS011;62991;50.040;18.400;2023-02-15T02:18:16;30.77;;;11.52;;
74510;SDS011;62991;50.040;18.400;2023-02-15T02:31:29;32.13;;;11.13;;
74510;SDS011;62991;50.040;18.400;2023-02-15T02:34:55;25.73;;;11.20;;
74510;SDS011;62991;50.040;18.400;2023-02-15T02:41:17;24.23;;;9.15;;
74510;SDS011;62991;50.040;18.400;2023-02-15T02:50:52;27.52;;;9.65;;
74510;SDS011;62991;50.040;18.400;2023-02-15T02:53:53;31.70;;;11.65;;
74510;SDS011;62991;50.040;18.400;2023-02-15T02:56:58;39.45;;;13.63;;
74510;SDS011;62991;50.040;18.400;2023-02-15T03:00:02;38.97;;;14.27;;
74510;SDS011;62991;50.040;18.400;2023-02-15T03:03:15;26.65;;;10.30;;
74510;SDS011;62991;50.040;18.400;2023-02-15T03:06:20;27.63;;;9.65;;
74510;SDS011;62991;50.040;18.400;2023-02-15T03:12:42;28.15;;;10.68;;
74510;SDS011;62991;50.040;18.400;2023-02-15T03:15:42;21.02;;;10.27;;
74510;SDS011;62991;50.040;18.400;2023-02-15T03:22:08;23.42;;;10.95;;
74510;SDS011;62991;50.040;18.400;2023-02-15T03:25:22;31.42;;;12.40;;
74510;SDS011;62991;50.040;18.400;2023-02-15T03:28:28;31.05;;;12.18;;
74510;SDS011;62991;50.040;18.400;2023-02-15T03:31:36;21.95;;;11.00;;
74510;SDS011;62991;50.040;18.400;2023-02-15T03:34:40;26.33;;;11.25;;
74510;SDS011;62991;50.040;18.400;2023-02-15T03:37:42;33.13;;;13.30;;
74510;SDS011;62991;50.040;18.400;2023-02-15T03:40:48;29.02;;;12.30;;
74510;SDS011;62991;50.040;18.400;2023-02-15T03:44:14;26.50;;;11.55;;
74510;SDS011;62991;50.040;18.400;2023-02-15T03:47:22;22.95;;;10.32;;
74510;SDS011;62991;50.040;18.400;2023-02-15T03:50:36;32.63;;;12.20;;
74510;SDS011;62991;50.040;18.400;2023-02-15T03:53:56;32.30;;;12.80;;
74510;SDS011;62991;50.040;18.400;2023-02-15T03:56:58;34.03;;;13.98;;
74510;SDS011;62991;50.040;18.400;2023-02-15T04:00:20;26.75;;;11.48;;
74510;SDS011;62991;50.040;18.400;2023-02-15T04:03:43;29.65;;;11.18;;
74510;SDS011;62991;50.040;18.400;2023-02-15T04:06:49;31.50;;;13.02;;
74510;SDS011;62991;50.040;18.400;2023-02-15T04:09:49;28.83;;;11.88;;
74510;SDS011;62991;50.040;18.400;2023-02-15T04:13:09;28.92;;;10.85;;
74510;SDS011;62991;50.040;18.400;2023-02-15T04:16:09;30.13;;;12.43;;
74510;SDS011;62991;50.040;18.400;2023-02-15T04:19:10;31.50;;;11.98;;
74510;SDS011;62991;50.040;18.400;2023-02-15T04:22:29;28.30;;;11.23;;
74510;SDS011;62991;50.040;18.400;2023-02-15T04:25:48;37.33;;;13.23;;
74510;SDS011;62991;50.040;18.400;2023-02-15T04:28:49;28.15;;;11.57;;
74510;SDS011;62991;50.040;18.400;2023-02-15T04:31:50;41.90;;;17.02;;
74510;SDS011;62991;50.040;18.400;2023-02-15T04:34:52;62.75;;;24.58;;
74510;SDS011;62991;50.040;18.400;2023-02-15T04:37:53;54.80;;;22.50;;
74510;SDS011;62991;50.040;18.400;2023-02-15T04:40:54;50.72;;;19.85;;
74510;SDS011;62991;50.040;18.400;2023-02-15T04:43:54;40.63;;;16.58;;
74510;SDS011;62991;50.040;18.400;2023-02-15T04:46:56;32.42;;;13.02;;
74510;SDS011;62991;50.040;18.400;2023-02-15T04:49:57;31.67;;;13.55;;
74510;SDS011;62991;50.040;18.400;2023-02-15T04:52:57;32.30;;;13.45;;
74510;SDS011;62991;50.040;18.400;2023-02-15T04:55:58;31.50;;;12.52;;
74510;SDS011;62991;50.040;18.400;2023-02-15T04:58:58;39.00;;;13.20;;
74510;SDS011;62991;50.040;18.400;2023-02-15T05:01:59;34.47;;;13.18;;
74510;SDS011;62991;50.040;18.400;2023-02-15T05:05:00;32.00;;;12.95;;
74510;SDS011;62991;50.040;18.400;2023-02-15T05:08:00;36.55;;;13.85;;
74510;SDS011;62991;50.040;18.400;2023-02-15T05:11:01;34.78;;;14.20;;
74510;SDS011;62991;50.040;18.400;2023-02-15T05:14:02;34.97;;;14.65;;
74510;SDS011;62991;50.040;18.400;2023-02-15T05:17:02;33.15;;;14.00;;
74510;SDS011;62991;50.040;18.400;2023-02-15T05:20:05;33.55;;;13.35;;
74510;SDS011;62991;50.040;18.400;2023-02-15T05:23:06;47.38;;;16.25;;
74510;SDS011;62991;50.040;18.400;2023-02-15T05:26:07;35.22;;;15.63;;
74510;SDS011;62991;50.040;18.400;2023-02-15T05:29:29;37.10;;;12.55;;
74510;SDS011;62991;50.040;18.400;2023-02-15T05:32:30;47.00;;;15.05;;
74510;SDS011;62991;50.040;18.400;2023-02-15T05:35:31;40.85;;;16.08;;
74510;SDS011;62991;50.040;18.400;2023-02-15T05:38:32;38.10;;;14.68;;
74510;SDS011;62991;50.040;18.400;2023-02-15T05:41:33;44.40;;;16.83;;
74510;SDS011;62991;50.040;18.400;2023-02-15T05:44:34;112.15;;;35.25;;
74510;SDS011;62991;50.040;18.400;2023-02-15T05:47:35;131.30;;;40.17;;
74510;SDS011;62991;50.040;18.400;2023-02-15T05:50:35;114.03;;;39.80;;
74510;SDS011;62991;50.040;18.400;2023-02-15T05:53:37;87.68;;;34.28;;
74510;SDS011;62991;50.040;18.400;2023-02-15T05:56:38;98.47;;;36.03;;
74510;SDS011;62991;50.040;18.400;2023-02-15T05:59:39;93.75;;;28.13;;
74510;SDS011;62991;50.040;18.400;2023-02-15T06:02:40;88.13;;;28.00;;
74510;SDS011;62991;50.040;18.400;2023-02-15T06:05:40;71.55;;;23.75;;
74510;SDS011;62991;50.040;18.400;2023-02-15T06:08:41;68.28;;;24.25;;
74510;SDS011;62991;50.040;18.400;2023-02-15T06:11:42;65.88;;;27.92;;
74510;SDS011;62991;50.040;18.400;2023-02-15T06:14:43;101.30;;;45.35;;
74510;SDS011;62991;50.040;18.400;2023-02-15T06:17:43;94.55;;;42.40;;
74510;SDS011;62991;50.040;18.400;2023-02-15T06:20:47;82.20;;;34.50;;
74510;SDS011;62991;50.040;18.400;2023-02-15T06:23:48;62.38;;;23.45;;
74510;SDS011;62991;50.040;18.400;2023-02-15T06:26:49;82.57;;;30.42;;
74510;SDS011;62991;50.040;18.400;2023-02-15T06:29:50;94.80;;;31.23;;
74510;SDS011;62991;50.040;18.400;2023-02-15T06:32:50;107.60;;;38.30;;
74510;SDS011;62991;50.040;18.400;2023-02-15T06:35:51;103.47;;;39.08;;
74510;SDS011;62991;50.040;18.400;2023-02-15T06:38:52;93.40;;;36.28;;
74510;SDS011;62991;50.040;18.400;2023-02-15T06:41:52;77.30;;;30.45;;
74510;SDS011;62991;50.040;18.400;2023-02-15T06:44:53;82.20;;;29.05;;
74510;SDS011;62991;50.040;18.400;2023-02-15T06:47:54;104.97;;;39.53;;
74510;SDS011;62991;50.040;18.400;2023-02-15T06:50:54;94.53;;;38.33;;
74510;SDS011;62991;50.040;18.400;2023-02-15T06:53:55;97.00;;;35.03;;
74510;SDS011;62991;50.040;18.400;2023-02-15T06:56:56;129.35;;;44.05;;
74510;SDS011;62991;50.040;18.400;2023-02-15T06:59:56;105.30;;;43.00;;
74510;SDS011;62991;50.040;18.400;2023-02-15T07:02:58;104.10;;;39.85;;
74510;SDS011;62991;50.040;18.400;2023-02-15T07:06:00;100.32;;;35.33;;
74510;SDS011;62991;50.040;18.400;2023-02-15T07:09:03;93.07;;;35.92;;
74510;SDS011;62991;50.040;18.400;2023-02-15T07:12:04;76.47;;;32.00;;
74510;SDS011;62991;50.040;18.400;2023-02-15T07:15:23;77.05;;;28.83;;
74510;SDS011;62991;50.040;18.400;2023-02-15T07:18:24;69.38;;;25.77;;
74510;SDS011;62991;50.040;18.400;2023-02-15T07:21:25;59.95;;;25.42;;
74510;SDS011;62991;50.040;18.400;2023-02-15T07:24:26;54.83;;;20.00;;
74510;SDS011;62991;50.040;18.400;2023-02-15T07:27:26;65.32;;;23.90;;
74510;SDS011;62991;50.040;18.400;2023-02-15T07:30:27;48.47;;;21.40;;
74510;SDS011;62991;50.040;18.400;2023-02-15T07:33:30;81.35;;;27.55;;
74510;SDS011;62991;50.040;18.400;2023-02-15T07:36:31;81.45;;;30.77;;
74510;SDS011;62991;50.040;18.400;2023-02-15T07:39:32;78.57;;;30.60;;
74510;SDS011;62991;50.040;18.400;2023-02-15T07:42:32;58.17;;;22.85;;
74510;SDS011;62991;50.040;18.400;2023-02-15T07:45:33;78.90;;;29.88;;
74510;SDS011;62991;50.040;18.400;2023-02-15T07:48:34;49.15;;;22.75;;
74510;SDS011;62991;50.040;18.400;2023-02-15T07:51:35;74.40;;;26.13;;
74510;SDS011;62991;50.040;18.400;2023-02-15T07:54:36;59.55;;;20.77;;
74510;SDS011;62991;50.040;18.400;2023-02-15T07:57:36;50.75;;;18.95;;
74510;SDS011;62991;50.040;18.400;2023-02-15T08:00:37;61.08;;;19.48;;
74510;SDS011;62991;50.040;18.400;2023-02-15T08:03:56;48.22;;;18.63;;
74510;SDS011;62991;50.040;18.400;2023-02-15T08:06:57;56.90;;;19.95;;
74510;SDS011;62991;50.040;18.400;2023-02-15T08:09:57;67.40;;;23.63;;
74510;SDS011;62991;50.040;18.400;2023-02-15T08:12:59;59.92;;;23.33;;
74510;SDS011;62991;50.040;18.400;2023-02-15T08:16:00;37.70;;;14.65;;
74510;SDS011;62991;50.040;18.400;2023-02-15T08:19:05;43.30;;;17.75;;
74510;SDS011;62991;50.040;18.400;2023-02-15T08:22:11;48.08;;;17.48;;
74510;SDS011;62991;50.040;18.400;2023-02-15T08:25:14;31.10;;;14.10;;
74510;SDS011;62991;50.040;18.400;2023-02-15T08:28:14;29.50;;;12.13;;
74510;SDS011;62991;50.040;18.400;2023-02-15T08:31:15;46.38;;;16.13;;
74510;SDS011;62991;50.040;18.400;2023-02-15T08:34:17;59.65;;;22.42;;
74510;SDS011;62991;50.040;18.400;2023-02-15T08:37:20;57.67;;;21.75;;
74510;SDS011;62991;50.040;18.400;2023-02-15T08:40:20;55.63;;;21.80;;
74510;SDS011;62991;50.040;18.400;2023-02-15T08:43:21;77.82;;;28.35;;
74510;SDS011;62991;50.040;18.400;2023-02-15T08:46:23;42.60;;;15.95;;
74510;SDS011;62991;50.040;18.400;2023-02-15T08:49:24;43.88;;;18.88;;
74510;SDS011;62991;50.040;18.400;2023-02-15T08:52:25;40.75;;;16.08;;
74510;SDS011;62991;50.040;18.400;2023-02-15T08:55:26;25.67;;;10.20;;
74510;SDS011;62991;50.040;18.400;2023-02-15T08:58:27;37.60;;;14.75;;
74510;SDS011;62991;50.040;18.400;2023-02-15T09:01:31;33.15;;;14.90;;
74510;SDS011;62991;50.040;18.400;2023-02-15T09:04:34;38.05;;;15.75;;
74510;SDS011;62991;50.040;18.400;2023-02-15T09:07:34;6.90;;;3.72;;
74510;SDS011;62991;50.040;18.400;2023-02-15T09:10:35;28.25;;;9.88;;
74510;SDS011;62991;50.040;18.400;2023-02-15T09:13:36;27.58;;;11.38;;
74510;SDS011;62991;50.040;18.400;2023-02-15T09:16:37;130.93;;;38.30;;
74510;SDS011;62991;50.040;18.400;2023-02-15T09:19:38;31.92;;;10.18;;
74510;SDS011;62991;50.040;18.400;2023-02-15T09:22:39;18.63;;;8.55;;
74510;SDS011;62991;50.040;18.400;2023-02-15T09:25:39;29.05;;;9.18;;
74510;SDS011;62991;50.040;18.400;2023-02-15T09:28:40;52.72;;;28.30;;
74510;SDS011;62991;50.040;18.400;2023-02-15T09:31:43;5.95;;;3.80;;
74510;SDS011;62991;50.040;18.400;2023-02-15T09:34:45;11.85;;;5.28;;
74510;SDS011;62991;50.040;18.400;2023-02-15T09:37:45;20.27;;;8.00;;
74510;SDS011;62991;50.040;18.400;2023-02-15T09:40:49;18.85;;;8.23;;
74510;SDS011;62991;50.040;18.400;2023-02-15T09:47:33;13.93;;;5.13;;
74510;SDS011;62991;50.040;18.400;2023-02-15T10:10:53;10.18;;;5.35;;
74510;SDS011;62991;50.040;18.400;2023-02-15T10:14:37;10.88;;;3.20;;
74510;SDS011;62991;50.040;18.400;2023-02-15T10:27:52;19.45;;;7.53;;
74510;SDS011;62991;50.040;18.400;2023-02-15T10:31:17;16.17;;;5.80;;
74510;SDS011;62991;50.040;18.400;2023-02-15T10:50:53;16.80;;;7.85;;
74510;SDS011;62991;50.040;18.400;2023-02-15T10:54:00;11.23;;;5.38;;
74510;SDS011;62991;50.040;18.400;2023-02-15T10:57:25;14.65;;;5.57;;
74510;SDS011;62991;50.040;18.400;2023-02-15T11:00:40;12.65;;;5.00;;
74510;SDS011;62991;50.040;18.400;2023-02-15T11:07:29;18.92;;;7.05;;
74510;SDS011;62991;50.040;18.400;2023-02-15T11:10:42;12.48;;;5.72;;
74510;SDS011;62991;50.040;18.400;2023-02-15T11:13:52;10.05;;;4.53;;
74510;SDS011;62991;50.040;18.400;2023-02-15T11:17:21;8.95;;;3.63;;
74510;SDS011;62991;50.040;18.400;2023-02-15T11:23:50;10.48;;;4.90;;
74510;SDS011;62991;50.040;18.400;2023-02-15T11:26:57;13.07;;;5.82;;
74510;SDS011;62991;50.040;18.400;2023-02-15T11:30:36;11.68;;;5.10;;
74510;SDS011;62991;50.040;18.400;2023-02-15T11:33:42;14.68;;;5.47;;
74510;SDS011;62991;50.040;18.400;2023-02-15T11:36:58;12.00;;;5.90;;
74510;SDS011;62991;50.040;18.400;2023-02-15T11:40:12;4.70;;;2.10;;
74510;SDS011;62991;50.040;18.400;2023-02-15T11:46:22;16.85;;;6.03;;
74510;SDS011;62991;50.040;18.400;2023-02-15T11:49:32;17.83;;;7.78;;
74510;SDS011;62991;50.040;18.400;2023-02-15T11:52:34;9.75;;;4.57;;
74510;SDS011;62991;50.040;18.400;2023-02-15T11:55:36;12.27;;;5.22;;
74510;SDS011;62991;50.040;18.400;2023-02-15T11:58:40;13.65;;;6.13;;
74510;SDS011;62991;50.040;18.400;2023-02-15T12:02:01;11.98;;;4.18;;
74510;SDS011;62991;50.040;18.400;2023-02-15T12:05:24;17.85;;;7.70;;
74510;SDS011;62991;50.040;18.400;2023-02-15T12:08:24;21.05;;;9.70;;
74510;SDS011;62991;50.040;18.400;2023-02-15T12:11:35;20.63;;;7.82;;
74510;SDS011;62991;50.040;18.400;2023-02-15T12:14:47;17.63;;;7.72;;
74510;SDS011;62991;50.040;18.400;2023-02-15T12:17:56;15.15;;;5.20;;
74510;SDS011;62991;50.040;18.400;2023-02-15T12:20:58;18.85;;;7.47;;
74510;SDS011;62991;50.040;18.400;2023-02-15T12:24:17;13.85;;;5.22;;
74510;SDS011;62991;50.040;18.400;2023-02-15T12:27:39;22.38;;;9.18;;
74510;SDS011;62991;50.040;18.400;2023-02-15T12:33:43;14.73;;;6.00;;
74510;SDS011;62991;50.040;18.400;2023-02-15T12:36:46;15.93;;;6.20;;
74510;SDS011;62991;50.040;18.400;2023-02-15T12:39:51;22.45;;;8.63;;
74510;SDS011;62991;50.040;18.400;2023-02-15T12:42:52;28.75;;;11.63;;
74510;SDS011;62991;50.040;18.400;2023-02-15T12:45:54;30.75;;;10.23;;
74510;SDS011;62991;50.040;18.400;2023-02-15T12:49:24;34.45;;;11.75;;
74510;SDS011;62991;50.040;18.400;2023-02-15T12:52:26;36.67;;;13.98;;
74510;SDS011;62991;50.040;18.400;2023-02-15T12:55:27;16.92;;;7.53;;
74510;SDS011;62991;50.040;18.400;2023-02-15T12:58:30;20.85;;;9.60;;
74510;SDS011;62991;50.040;18.400;2023-02-15T13:01:32;20.23;;;9.80;;
74510;SDS011;62991;50.040;18.400;2023-02-15T13:04:33;26.52;;;10.02;;
74510;SDS011;62991;50.040;18.400;2023-02-15T13:07:34;24.10;;;10.65;;
74510;SDS011;62991;50.040;18.400;2023-02-15T13:10:37;24.42;;;11.50;;
74510;SDS011;62991;50.040;18.400;2023-02-15T13:13:56;45.53;;;19.20;;
74510;SDS011;62991;50.040;18.400;2023-02-15T13:17:01;22.95;;;9.35;;
74510;SDS011;62991;50.040;18.400;2023-02-15T13:20:04;26.17;;;11.73;;
74510;SDS011;62991;50.040;18.400;2023-02-15T13:26:26;35.95;;;13.70;;
74510;SDS011;62991;50.040;18.400;2023-02-15T13:29:30;29.40;;;12.82;;
74510;SDS011;62991;50.040;18.400;2023-02-15T13:32:35;32.22;;;16.08;;
74510;SDS011;62991;50.040;18.400;2023-02-15T13:35:41;26.85;;;12.93;;
74510;SDS011;62991;50.040;18.400;2023-02-15T13:45:47;26.27;;;12.48;;
74510;SDS011;62991;50.040;18.400;2023-02-15T13:49:17;23.98;;;10.68;;
74510;SDS011;62991;50.040;18.400;2023-02-15T14:03:24;31.73;;;13.20;;
74510;SDS011;62991;50.040;18.400;2023-02-15T14:06:33;32.05;;;13.40;;
74510;SDS011;62991;50.040;18.400;2023-02-15T14:16:45;26.38;;;12.05;;
74510;SDS011;62991;50.040;18.400;2023-02-15T14:30:33;29.33;;;12.95;;
74510;SDS011;62991;50.040;18.400;2023-02-15T14:33:38;28.75;;;13.45;;
74510;SDS011;62991;50.040;18.400;2023-02-15T14:36:44;32.22;;;14.63;;
74510;SDS011;62991;50.040;18.400;2023-02-15T14:39:51;30.00;;;12.55;;
74510;SDS011;62991;50.040;18.400;2023-02-15T14:50:10;37.83;;;14.63;;
74510;SDS011;62991;50.040;18.400;2023-02-15T14:56:30;40.70;;;17.02;;
74510;SDS011;62991;50.040;18.400;2023-02-15T15:02:57;41.83;;;13.95;;
74510;SDS011;62991;50.040;18.400;2023-02-15T15:05:58;34.88;;;12.75;;
74510;SDS011;62991;50.040;18.400;2023-02-15T15:09:10;30.83;;;12.13;;
74510;SDS011;62991;50.040;18.400;2023-02-15T15:18:46;36.78;;;12.70;;
74510;SDS011;62991;50.040;18.400;2023-02-15T15:24:50;19.73;;;7.68;;
74510;SDS011;62991;50.040;18.400;2023-02-15T15:27:53;36.55;;;13.23;;
74510;SDS011;62991;50.040;18.400;2023-02-15T15:30:54;35.53;;;12.93;;
74510;SDS011;62991;50.040;18.400;2023-02-15T15:37:43;25.48;;;10.10;;
74510;SDS011;62991;50.040;18.400;2023-02-15T15:50:41;37.95;;;14.25;;
74510;SDS011;62991;50.040;18.400;2023-02-15T15:53:44;40.75;;;15.02;;
74510;SDS011;62991;50.040;18.400;2023-02-15T15:56:52;42.85;;;17.55;;
74510;SDS011;62991;50.040;18.400;2023-02-15T15:59:56;45.55;;;16.20;;
74510;SDS011;62991;50.040;18.400;2023-02-15T16:03:01;65.00;;;20.80;;
74510;SDS011;62991;50.040;18.400;2023-02-15T16:06:02;58.17;;;23.77;;
74510;SDS011;62991;50.040;18.400;2023-02-15T16:09:36;61.72;;;23.67;;
74510;SDS011;62991;50.040;18.400;2023-02-15T16:12:33;37.35;;;14.68;;
74510;SDS011;62991;50.040;18.400;2023-02-15T16:15:46;72.82;;;24.02;;
74510;SDS011;62991;50.040;18.400;2023-02-15T16:18:49;99.10;;;35.33;;
74510;SDS011;62991;50.040;18.400;2023-02-15T16:21:51;91.80;;;33.78;;
74510;SDS011;62991;50.040;18.400;2023-02-15T16:27:57;67.13;;;23.38;;
74510;SDS011;62991;50.040;18.400;2023-02-15T16:34:16;54.00;;;20.42;;
74510;SDS011;62991;50.040;18.400;2023-02-15T16:37:18;109.07;;;37.30;;
74510;SDS011;62991;50.040;18.400;2023-02-15T16:43:24;74.72;;;26.05;;
74510;SDS011;62991;50.040;18.400;2023-02-15T16:46:39;47.65;;;16.92;;
74510;SDS011;62991;50.040;18.400;2023-02-15T16:49:43;57.45;;;20.13;;
74510;SDS011;62991;50.040;18.400;2023-02-15T16:52:46;79.68;;;23.77;;
74510;SDS011;62991;50.040;18.400;2023-02-15T16:55:48;53.80;;;17.92;;
74510;SDS011;62991;50.040;18.400;2023-02-15T16:58:51;58.13;;;19.15;;
74510;SDS011;62991;50.040;18.400;2023-02-15T17:01:55;28.13;;;11.88;;
74510;SDS011;62991;50.040;18.400;2023-02-15T17:08:12;117.82;;;36.28;;
74510;SDS011;62991;50.040;18.400;2023-02-15T17:11:15;114.00;;;37.83;;
74510;SDS011;62991;50.040;18.400;2023-02-15T17:14:21;124.72;;;39.40;;
74510;SDS011;62991;50.040;18.400;2023-02-15T17:17:28;94.32;;;31.48;;
74510;SDS011;62991;50.040;18.400;2023-02-15T17:20:32;93.65;;;27.42;;
74510;SDS011;62991;50.040;18.400;2023-02-15T17:23:41;61.13;;;20.73;;
74510;SDS011;62991;50.040;18.400;2023-02-15T17:29:52;94.43;;;29.55;;
74510;SDS011;62991;50.040;18.400;2023-02-15T17:32:58;97.13;;;32.72;;
74510;SDS011;62991;50.040;18.400;2023-02-15T17:39:19;40.65;;;15.75;;
74510;SDS011;62991;50.040;18.400;2023-02-15T17:42:20;70.57;;;25.20;;
74510;SDS011;62991;50.040;18.400;2023-02-15T17:45:22;58.20;;;18.50;;
74510;SDS011;62991;50.040;18.400;2023-02-15T17:48:32;63.83;;;22.27;;
74510;SDS011;62991;50.040;18.400;2023-02-15T17:51:34;63.55;;;22.73;;
74510;SDS011;62991;50.040;18.400;2023-02-15T17:54:35;55.17;;;20.13;;
74510;SDS011;62991;50.040;18.400;2023-02-15T17:57:54;42.17;;;15.88;;
74510;SDS011;62991;50.040;18.400;2023-02-15T18:00:55;28.73;;;12.93;;
74510;SDS011;62991;50.040;18.400;2023-02-15T18:04:17;57.60;;;16.88;;
74510;SDS011;62991;50.040;18.400;2023-02-15T18:07:37;59.75;;;21.77;;
74510;SDS011;62991;50.040;18.400;2023-02-15T18:10:57;66.82;;;21.23;;
74510;SDS011;62991;50.040;18.400;2023-02-15T18:14:17;55.78;;;23.45;;
74510;SDS011;62991;50.040;18.400;2023-02-15T18:17:18;41.13;;;16.60;;
74510;SDS011;62991;50.040;18.400;2023-02-15T18:23:33;47.90;;;16.63;;
74510;SDS011;62991;50.040;18.400;2023-02-15T18:26:34;46.28;;;16.95;;
74510;SDS011;62991;50.040;18.400;2023-02-15T18:29:35;51.33;;;17.80;;
74510;SDS011;62991;50.040;18.400;2023-02-15T18:32:35;42.58;;;16.48;;
74510;SDS011;62991;50.040;18.400;2023-02-15T18:35:39;42.45;;;16.15;;
74510;SDS011;62991;50.040;18.400;2023-02-15T18:38:39;44.13;;;15.68;;
74510;SDS011;62991;50.040;18.400;2023-02-15T18:41:40;35.50;;;11.75;;
74510;SDS011;62991;50.040;18.400;2023-02-15T18:44:41;56.15;;;18.30;;
74510;SDS011;62991;50.040;18.400;2023-02-15T18:47:42;52.95;;;16.83;;
74510;SDS011;62991;50.040;18.400;2023-02-15T18:50:43;31.30;;;11.70;;
74510;SDS011;62991;50.040;18.400;2023-02-15T18:53:45;30.27;;;9.77;;
74510;SDS011;62991;50.040;18.400;2023-02-15T18:56:50;40.22;;;14.07;;
74510;SDS011;62991;50.040;18.400;2023-02-15T18:59:57;47.97;;;16.42;;
74510;SDS011;62991;50.040;18.400;2023-02-15T19:02:58;36.00;;;13.43;;
74510;SDS011;62991;50.040;18.400;2023-02-15T19:06:01;33.80;;;11.10;;
74510;SDS011;62991;50.040;18.400;2023-02-15T19:09:04;31.20;;;12.43;;
74510;SDS011;62991;50.040;18.400;2023-02-15T19:12:07;27.55;;;11.65;;
74510;SDS011;62991;50.040;18.400;2023-02-15T19:15:16;33.53;;;11.88;;
74510;SDS011;62991;50.040;18.400;2023-02-15T19:18:18;62.92;;;25.67;;
74510;SDS011;62991;50.040;18.400;2023-02-15T19:21:19;58.75;;;22.15;;
74510;SDS011;62991;50.040;18.400;2023-02-15T19:24:22;55.67;;;18.40;;
74510;SDS011;62991;50.040;18.400;2023-02-15T19:27:34;12.23;;;5.32;;
74510;SDS011;62991;50.040;18.400;2023-02-15T19:30:36;43.65;;;13.93;;
74510;SDS011;62991;50.040;18.400;2023-02-15T19:33:37;43.45;;;12.60;;
74510;SDS011;62991;50.040;18.400;2023-02-15T19:36:38;29.40;;;12.75;;
74510;SDS011;62991;50.040;18.400;2023-02-15T19:39:39;28.73;;;11.00;;
74510;SDS011;62991;50.040;18.400;2023-02-15T19:42:41;19.33;;;6.88;;
74510;SDS011;62991;50.040;18.400;2023-02-15T19:45:42;22.40;;;9.18;;
74510;SDS011;62991;50.040;18.400;2023-02-15T19:48:43;35.10;;;11.88;;
74510;SDS011;62991;50.040;18.400;2023-02-15T19:51:44;21.50;;;8.65;;
74510;SDS011;62991;50.040;18.400;2023-02-15T19:54:45;21.05;;;8.98;;
74510;SDS011;62991;50.040;18.400;2023-02-15T19:57:48;20.95;;;8.55;;
74510;SDS011;62991;50.040;18.400;2023-02-15T20:00:49;16.35;;;8.07;;
74510;SDS011;62991;50.040;18.400;2023-02-15T20:03:50;23.35;;;10.27;;
74510;SDS011;62991;50.040;18.400;2023-02-15T20:06:53;25.63;;;11.07;;
74510;SDS011;62991;50.040;18.400;2023-02-15T20:09:56;42.15;;;12.60;;
74510;SDS011;62991;50.040;18.400;2023-02-15T20:12:57;26.70;;;11.20;;
74510;SDS011;62991;50.040;18.400;2023-02-15T20:15:57;18.65;;;7.47;;
74510;SDS011;62991;50.040;18.400;2023-02-15T20:19:00;26.02;;;9.52;;
74510;SDS011;62991;50.040;18.400;2023-02-15T20:22:01;19.77;;;7.97;;
74510;SDS011;62991;50.040;18.400;2023-02-15T20:25:02;14.50;;;8.05;;
74510;SDS011;62991;50.040;18.400;2023-02-15T20:28:02;3.42;;;2.00;;
74510;SDS011;62991;50.040;18.400;2023-02-15T20:31:03;12.23;;;4.75;;
74510;SDS011;62991;50.040;18.400;2023-02-15T20:34:04;25.55;;;9.75;;
74510;SDS011;62991;50.040;18.400;2023-02-15T20:37:05;19.52;;;6.28;;
74510;SDS011;62991;50.040;18.400;2023-02-15T20:40:16;7.75;;;4.88;;
74510;SDS011;62991;50.040;18.400;2023-02-15T20:43:26;18.63;;;5.50;;
74510;SDS011;62991;50.040;18.400;2023-02-15T20:46:26;20.65;;;8.25;;
74510;SDS011;62991;50.040;18.400;2023-02-15T20:49:28;22.80;;;9.50;;
74510;SDS011;62991;50.040;18.400;2023-02-15T20:52:28;9.93;;;3.20;;
74510;SDS011;62991;50.040;18.400;2023-02-15T20:55:30;10.07;;;4.53;;
74510;SDS011;62991;50.040;18.400;2023-02-15T20:58:31;9.45;;;4.30;;
74510;SDS011;62991;50.040;18.400;2023-02-15T21:01:32;19.10;;;8.32;;